sensor_id;sensor_type;location;lat;lon;timestamp;P1;durP1;ratioP1;P2;durP2;ratioP2
20203;SDS011;10261;49.010;12.034;2023-08-30T00:00:01;3.05;;;2.70;;
20203;SDS011;10261;49.010;12.034;2023-08-30T00:01:04;3.72;;;2.80;;
20203;SDS011;10261;49.010;12.034;2023-08-30T00:02:06;3.55;;;3.25;;
20203;SDS011;10261;49.010;12.034;2023-08-30T00:03:09;7.22;;;2.80;;
20203;SDS011;10261;49.010;12.034;2023-08-30T00:04:13;4.65;;;2.50;;
20203;SDS011;10261;49.010;12.034;2023-08-30T00:05:16;3.25;;;2.95;;
20203;SDS011;10261;49.010;12.034;2023-08-30T00:06:17;5.32;;;2.60;;
20203;SDS011;10261;49.010;12.034;2023-08-30T00:07:21;2.38;;;2.17;;
20203;SDS011;10261;49.010;12.034;2023-08-30T00:08:23;3.30;;;2.97;;
20203;SDS011;10261;49.010;12.034;2023-08-30T00:09:26;4.18;;;3.08;;
20203;SDS011;10261;49.010;12.034;2023-08-30T00:10:27;6.97;;;3.35;;
20203;SDS011;10261;49.010;12.034;2023-08-30T00:11:32;2.80;;;2.55;;
20203;SDS011;10261;49.010;12.034;2023-08-30T00:12:34;3.90;;;3.42;;
20203;SDS011;10261;49.010;12.034;2023-08-30T00:13:36;3.45;;;3.15;;
20203;SDS011;10261;49.010;12.034;2023-08-30T00:14:39;3.80;;;2.92;;
20203;SDS011;10261;49.010;12.034;2023-08-30T00:15:41;3.20;;;2.90;;
20203;SDS011;10261;49.010;12.034;2023-08-30T00:16:43;4.75;;;3.25;;
20203;SDS011;10261;49.010;12.034;2023-08-30T00:17:46;8.20;;;3.03;;
20203;SDS011;10261;49.010;12.034;2023-08-30T00:18:49;3.60;;;3.30;;
20203;SDS011;10261;49.010;12.034;2023-08-30T00:19:52;3.55;;;3.17;;
20203;SDS011;10261;49.010;12.034;2023-08-30T00:20:54;3.05;;;2.85;;
20203;SDS011;10261;49.010;12.034;2023-08-30T00:21:58;2.97;;;2.70;;
20203;SDS011;10261;49.010;12.034;2023-08-30T00:22:59;4.88;;;3.70;;
20203;SDS011;10261;49.010;12.034;2023-08-30T00:24:02;3.63;;;2.97;;
20203;SDS011;10261;49.010;12.034;2023-08-30T00:25:05;3.50;;;3.20;;
20203;SDS011;10261;49.010;12.034;2023-08-30T00:26:08;3.20;;;2.90;;
20203;SDS011;10261;49.010;12.034;2023-08-30T00:27:11;4.55;;;2.90;;
20203;SDS011;10261;49.010;12.034;2023-08-30T00:28:14;4.00;;;3.60;;
20203;SDS011;10261;49.010;12.034;2023-08-30T00:29:16;3.15;;;2.83;;
20203;SDS011;10261;49.010;12.034;2023-08-30T00:30:19;3.03;;;2.78;;
20203;SDS011;10261;49.010;12.034;2023-08-30T00:31:21;2.95;;;2.70;;
20203;SDS011;10261;49.010;12.034;2023-08-30T00:32:24;3.80;;;3.20;;
20203;SDS011;10261;49.010;12.034;2023-08-30T00:33:26;3.35;;;3.05;;
20203;SDS011;10261;49.010;12.034;2023-08-30T00:34:28;2.92;;;2.70;;
20203;SDS011;10261;49.010;12.034;2023-08-30T00:35:30;3.72;;;3.30;;
20203;SDS011;10261;49.010;12.034;2023-08-30T00:36:33;4.35;;;3.60;;
20203;SDS011;10261;49.010;12.034;2023-08-30T00:37:35;4.38;;;3.25;;
20203;SDS011;10261;49.010;12.034;2023-08-30T00:38:38;3.10;;;2.55;;
20203;SDS011;10261;49.010;12.034;2023-08-30T00:39:40;3.85;;;2.50;;
20203;SDS011;10261;49.010;12.034;2023-08-30T00:40:43;3.33;;;3.13;;
20203;SDS011;10261;49.010;12.034;2023-08-30T00:41:45;2.83;;;2.63;;
20203;SDS011;10261;49.010;12.034;2023-08-30T00:42:49;3.15;;;2.85;;
20203;SDS011;10261;49.010;12.034;2023-08-30T00:43:51;5.00;;;3.25;;
20203;SDS011;10261;49.010;12.034;2023-08-30T00:44:53;4.53;;;3.30;;
20203;SDS011;10261;49.010;12.034;2023-08-30T00:45:55;4.43;;;3.35;;
20203;SDS011;10261;49.010;12.034;2023-08-30T00:46:58;3.65;;;3.03;;
20203;SDS011;10261;49.010;12.034;2023-08-30T00:48:01;3.00;;;2.78;;
20203;SDS011;10261;49.010;12.034;2023-08-30T00:49:05;2.90;;;2.70;;
20203;SDS011;10261;49.010;12.034;2023-08-30T00:50:09;4.05;;;3.08;;
20203;SDS011;10261;49.010;12.034;2023-08-30T00:51:11;3.70;;;3.38;;
20203;SDS011;10261;49.010;12.034;2023-08-30T00:52:14;3.60;;;3.00;;
20203;SDS011;10261;49.010;12.034;2023-08-30T00:53:17;5.72;;;3.40;;
20203;SDS011;10261;49.010;12.034;2023-08-30T00:54:20;3.65;;;2.90;;
20203;SDS011;10261;49.010;12.034;2023-08-30T00:55:22;7.28;;;3.47;;
20203;SDS011;10261;49.010;12.034;2023-08-30T00:56:25;2.63;;;2.20;;
20203;SDS011;10261;49.010;12.034;2023-08-30T00:57:29;5.40;;;3.10;;
20203;SDS011;10261;49.010;12.034;2023-08-30T00:58:33;3.40;;;3.03;;
20203;SDS011;10261;49.010;12.034;2023-08-30T00:59:35;3.60;;;3.30;;
20203;SDS011;10261;49.010;12.034;2023-08-30T01:00:39;2.72;;;2.53;;
20203;SDS011;10261;49.010;12.034;2023-08-30T01:01:41;3.25;;;2.90;;
20203;SDS011;10261;49.010;12.034;2023-08-30T01:02:44;3.05;;;2.70;;
20203;SDS011;10261;49.010;12.034;2023-08-30T01:03:46;2.50;;;2.30;;
20203;SDS011;10261;49.010;12.034;2023-08-30T01:04:49;4.90;;;2.30;;
20203;SDS011;10261;49.010;12.034;2023-08-30T01:05:51;5.00;;;2.60;;
20203;SDS011;10261;49.010;12.034;2023-08-30T01:06:54;3.80;;;3.05;;
20203;SDS011;10261;49.010;12.034;2023-08-30T01:07:56;5.20;;;3.30;;
20203;SDS011;10261;49.010;12.034;2023-08-30T01:08:59;4.30;;;3.08;;
20203;SDS011;10261;49.010;12.034;2023-08-30T01:10:01;3.33;;;2.80;;
20203;SDS011;10261;49.010;12.034;2023-08-30T01:11:09;4.65;;;2.78;;
20203;SDS011;10261;49.010;12.034;2023-08-30T01:12:16;3.95;;;2.55;;
20203;SDS011;10261;49.010;12.034;2023-08-30T01:13:26;4.38;;;3.00;;
20203;SDS011;10261;49.010;12.034;2023-08-30T01:14:35;3.08;;;2.78;;
20203;SDS011;10261;49.010;12.034;2023-08-30T01:15:42;3.75;;;2.78;;
20203;SDS011;10261;49.010;12.034;2023-08-30T01:16:47;2.72;;;2.50;;
20203;SDS011;10261;49.010;12.034;2023-08-30T01:17:51;5.63;;;2.53;;
20203;SDS011;10261;49.010;12.034;2023-08-30T01:18:54;6.55;;;2.60;;
20203;SDS011;10261;49.010;12.034;2023-08-30T01:20:00;3.30;;;3.00;;
20203;SDS011;10261;49.010;12.034;2023-08-30T01:21:09;3.35;;;2.97;;
20203;SDS011;10261;49.010;12.034;2023-08-30T01:22:24;3.58;;;2.55;;
20203;SDS011;10261;49.010;12.034;2023-08-30T01:23:37;3.00;;;2.75;;
20203;SDS011;10261;49.010;12.034;2023-08-30T01:24:45;2.63;;;2.42;;
20203;SDS011;10261;49.010;12.034;2023-08-30T01:25:57;3.10;;;2.85;;
20203;SDS011;10261;49.010;12.034;2023-08-30T01:27:11;2.90;;;2.40;;
20203;SDS011;10261;49.010;12.034;2023-08-30T01:28:15;3.55;;;2.83;;
20203;SDS011;10261;49.010;12.034;2023-08-30T01:29:20;2.80;;;2.60;;
20203;SDS011;10261;49.010;12.034;2023-08-30T01:30:23;3.65;;;2.35;;
20203;SDS011;10261;49.010;12.034;2023-08-30T01:31:28;2.75;;;2.45;;
20203;SDS011;10261;49.010;12.034;2023-08-30T01:32:34;6.15;;;2.30;;
20203;SDS011;10261;49.010;12.034;2023-08-30T01:33:38;2.20;;;2.00;;
20203;SDS011;10261;49.010;12.034;2023-08-30T01:34:42;5.00;;;3.00;;
20203;SDS011;10261;49.010;12.034;2023-08-30T01:35:46;5.00;;;3.00;;
20203;SDS011;10261;49.010;12.034;2023-08-30T01:36:49;2.55;;;2.35;;
20203;SDS011;10261;49.010;12.034;2023-08-30T01:37:51;2.97;;;2.50;;
20203;SDS011;10261;49.010;12.034;2023-08-30T01:38:55;2.88;;;2.67;;
20203;SDS011;10261;49.010;12.034;2023-08-30T01:39:59;2.75;;;2.15;;
20203;SDS011;10261;49.010;12.034;2023-08-30T01:41:05;2.97;;;2.63;;
20203;SDS011;10261;49.010;12.034;2023-08-30T01:42:07;2.78;;;2.58;;
20203;SDS011;10261;49.010;12.034;2023-08-30T01:43:12;3.80;;;2.53;;
20203;SDS011;10261;49.010;12.034;2023-08-30T01:44:15;2.65;;;2.20;;
20203;SDS011;10261;49.010;12.034;2023-08-30T01:45:19;10.70;;;2.78;;
20203;SDS011;10261;49.010;12.034;2023-08-30T01:46:22;2.78;;;2.55;;
20203;SDS011;10261;49.010;12.034;2023-08-30T01:47:27;2.70;;;2.45;;
20203;SDS011;10261;49.010;12.034;2023-08-30T01:48:30;2.60;;;2.25;;
20203;SDS011;10261;49.010;12.034;2023-08-30T01:49:36;4.70;;;2.75;;
20203;SDS011;10261;49.010;12.034;2023-08-30T01:50:41;4.15;;;2.85;;
20203;SDS011;10261;49.010;12.034;2023-08-30T01:51:44;2.50;;;2.30;;
20203;SDS011;10261;49.010;12.034;2023-08-30T01:52:47;5.20;;;2.70;;
20203;SDS011;10261;49.010;12.034;2023-08-30T01:53:50;3.22;;;2.90;;
20203;SDS011;10261;49.010;12.034;2023-08-30T01:54:54;3.45;;;2.88;;
20203;SDS011;10261;49.010;12.034;2023-08-30T01:55:56;2.88;;;2.67;;
20203;SDS011;10261;49.010;12.034;2023-08-30T01:56:58;3.45;;;2.85;;
20203;SDS011;10261;49.010;12.034;2023-08-30T01:58:01;2.80;;;2.50;;
20203;SDS011;10261;49.010;12.034;2023-08-30T01:59:05;5.88;;;2.67;;
20203;SDS011;10261;49.010;12.034;2023-08-30T02:00:08;4.38;;;2.75;;
20203;SDS011;10261;49.010;12.034;2023-08-30T02:01:11;3.00;;;2.80;;
20203;SDS011;10261;49.010;12.034;2023-08-30T02:02:14;5.07;;;3.35;;
20203;SDS011;10261;49.010;12.034;2023-08-30T02:03:16;3.63;;;3.33;;
20203;SDS011;10261;49.010;12.034;2023-08-30T02:04:19;6.20;;;3.00;;
20203;SDS011;10261;49.010;12.034;2023-08-30T02:05:21;4.65;;;3.28;;
20203;SDS011;10261;49.010;12.034;2023-08-30T02:06:24;4.20;;;3.25;;
20203;SDS011;10261;49.010;12.034;2023-08-30T02:07:30;4.13;;;3.58;;
20203;SDS011;10261;49.010;12.034;2023-08-30T02:08:38;3.25;;;3.00;;
20203;SDS011;10261;49.010;12.034;2023-08-30T02:09:45;9.70;;;3.90;;
20203;SDS011;10261;49.010;12.034;2023-08-30T02:10:55;3.88;;;3.40;;
20203;SDS011;10261;49.010;12.034;2023-08-30T02:12:00;5.25;;;3.65;;
20203;SDS011;10261;49.010;12.034;2023-08-30T02:13:09;3.92;;;3.50;;
20203;SDS011;10261;49.010;12.034;2023-08-30T02:14:14;3.70;;;3.40;;
20203;SDS011;10261;49.010;12.034;2023-08-30T02:15:19;3.85;;;3.42;;
20203;SDS011;10261;49.010;12.034;2023-08-30T02:16:23;5.65;;;3.50;;
20203;SDS011;10261;49.010;12.034;2023-08-30T02:17:28;3.75;;;3.40;;
20203;SDS011;10261;49.010;12.034;2023-08-30T02:18:31;4.45;;;3.40;;
20203;SDS011;10261;49.010;12.034;2023-08-30T02:19:35;3.65;;;3.35;;
20203;SDS011;10261;49.010;12.034;2023-08-30T02:20:38;3.53;;;3.22;;
20203;SDS011;10261;49.010;12.034;2023-08-30T02:21:40;3.28;;;2.97;;
20203;SDS011;10261;49.010;12.034;2023-08-30T02:22:43;4.47;;;4.05;;
20203;SDS011;10261;49.010;12.034;2023-08-30T02:23:48;4.13;;;3.83;;
20203;SDS011;10261;49.010;12.034;2023-08-30T02:24:52;4.15;;;3.13;;
20203;SDS011;10261;49.010;12.034;2023-08-30T02:25:54;3.50;;;3.10;;
20203;SDS011;10261;49.010;12.034;2023-08-30T02:26:57;6.95;;;3.75;;
20203;SDS011;10261;49.010;12.034;2023-08-30T02:27:59;5.10;;;3.72;;
20203;SDS011;10261;49.010;12.034;2023-08-30T02:29:02;4.85;;;4.10;;
20203;SDS011;10261;49.010;12.034;2023-08-30T02:30:06;3.70;;;3.40;;
20203;SDS011;10261;49.010;12.034;2023-08-30T02:31:10;3.53;;;3.22;;
20203;SDS011;10261;49.010;12.034;2023-08-30T02:32:12;4.40;;;3.28;;
20203;SDS011;10261;49.010;12.034;2023-08-30T02:33:16;4.20;;;3.78;;
20203;SDS011;10261;49.010;12.034;2023-08-30T02:34:18;5.82;;;3.40;;
20203;SDS011;10261;49.010;12.034;2023-08-30T02:35:21;8.60;;;4.03;;
20203;SDS011;10261;49.010;12.034;2023-08-30T02:36:23;5.38;;;3.80;;
20203;SDS011;10261;49.010;12.034;2023-08-30T02:37:25;3.45;;;3.15;;
20203;SDS011;10261;49.010;12.034;2023-08-30T02:38:27;3.85;;;3.40;;
20203;SDS011;10261;49.010;12.034;2023-08-30T02:39:30;3.70;;;3.40;;
20203;SDS011;10261;49.010;12.034;2023-08-30T02:40:32;3.53;;;3.22;;
20203;SDS011;10261;49.010;12.034;2023-08-30T02:41:35;5.35;;;3.53;;
20203;SDS011;10261;49.010;12.034;2023-08-30T02:42:37;4.40;;;3.00;;
20203;SDS011;10261;49.010;12.034;2023-08-30T02:43:40;3.72;;;3.20;;
20203;SDS011;10261;49.010;12.034;2023-08-30T02:44:42;3.80;;;3.50;;
20203;SDS011;10261;49.010;12.034;2023-08-30T02:45:46;3.97;;;2.70;;
20203;SDS011;10261;49.010;12.034;2023-08-30T02:46:48;4.28;;;3.50;;
20203;SDS011;10261;49.010;12.034;2023-08-30T02:47:54;3.40;;;3.10;;
20203;SDS011;10261;49.010;12.034;2023-08-30T02:48:56;3.10;;;2.80;;
20203;SDS011;10261;49.010;12.034;2023-08-30T02:49:59;3.25;;;2.95;;
20203;SDS011;10261;49.010;12.034;2023-08-30T02:51:01;3.17;;;2.97;;
20203;SDS011;10261;49.010;12.034;2023-08-30T02:52:04;5.75;;;3.28;;
20203;SDS011;10261;49.010;12.034;2023-08-30T02:53:07;3.90;;;3.47;;
20203;SDS011;10261;49.010;12.034;2023-08-30T02:54:10;6.85;;;3.40;;
20203;SDS011;10261;49.010;12.034;2023-08-30T02:55:14;3.30;;;3.00;;
20203;SDS011;10261;49.010;12.034;2023-08-30T02:56:17;5.22;;;3.50;;
20203;SDS011;10261;49.010;12.034;2023-08-30T02:57:19;3.58;;;3.28;;
20203;SDS011;10261;49.010;12.034;2023-08-30T02:58:22;3.45;;;3.15;;
20203;SDS011;10261;49.010;12.034;2023-08-30T02:59:24;4.32;;;3.92;;
20203;SDS011;10261;49.010;12.034;2023-08-30T03:00:27;5.75;;;3.67;;
20203;SDS011;10261;49.010;12.034;2023-08-30T03:01:30;4.82;;;4.43;;
20203;SDS011;10261;49.010;12.034;2023-08-30T03:02:33;4.80;;;3.90;;
20203;SDS011;10261;49.010;12.034;2023-08-30T03:03:35;4.80;;;4.28;;
20203;SDS011;10261;49.010;12.034;2023-08-30T03:04:38;5.80;;;4.57;;
20203;SDS011;10261;49.010;12.034;2023-08-30T03:05:40;4.50;;;4.10;;
20203;SDS011;10261;49.010;12.034;2023-08-30T03:06:43;4.10;;;3.80;;
20203;SDS011;10261;49.010;12.034;2023-08-30T03:07:45;5.70;;;5.03;;
20203;SDS011;10261;49.010;12.034;2023-08-30T03:08:47;4.57;;;4.18;;
20203;SDS011;10261;49.010;12.034;2023-08-30T03:09:51;5.05;;;4.53;;
20203;SDS011;10261;49.010;12.034;2023-08-30T03:10:54;5.70;;;4.60;;
20203;SDS011;10261;49.010;12.034;2023-08-30T03:11:56;4.65;;;4.07;;
20203;SDS011;10261;49.010;12.034;2023-08-30T03:12:59;8.10;;;4.80;;
20203;SDS011;10261;49.010;12.034;2023-08-30T03:14:01;5.68;;;4.30;;
20203;SDS011;10261;49.010;12.034;2023-08-30T03:15:04;6.60;;;3.80;;
20203;SDS011;10261;49.010;12.034;2023-08-30T03:16:10;12.07;;;5.03;;
20203;SDS011;10261;49.010;12.034;2023-08-30T03:17:15;5.07;;;4.57;;
20203;SDS011;10261;49.010;12.034;2023-08-30T03:18:17;8.27;;;4.22;;
20203;SDS011;10261;49.010;12.034;2023-08-30T03:19:20;4.32;;;3.85;;
20203;SDS011;10261;49.010;12.034;2023-08-30T03:20:22;4.50;;;4.03;;
20203;SDS011;10261;49.010;12.034;2023-08-30T03:21:24;4.07;;;3.75;;
20203;SDS011;10261;49.010;12.034;2023-08-30T03:22:26;7.10;;;4.40;;
20203;SDS011;10261;49.010;12.034;2023-08-30T03:23:29;4.22;;;3.85;;
20203;SDS011;10261;49.010;12.034;2023-08-30T03:24:32;4.68;;;3.25;;
20203;SDS011;10261;49.010;12.034;2023-08-30T03:25:36;4.72;;;4.30;;
20203;SDS011;10261;49.010;12.034;2023-08-30T03:26:38;4.50;;;4.10;;
20203;SDS011;10261;49.010;12.034;2023-08-30T03:27:43;5.15;;;4.05;;
20203;SDS011;10261;49.010;12.034;2023-08-30T03:28:45;5.63;;;4.88;;
20203;SDS011;10261;49.010;12.034;2023-08-30T03:29:48;5.18;;;4.22;;
20203;SDS011;10261;49.010;12.034;2023-08-30T03:30:50;4.50;;;4.03;;
20203;SDS011;10261;49.010;12.034;2023-08-30T03:31:52;4.57;;;4.18;;
20203;SDS011;10261;49.010;12.034;2023-08-30T03:32:56;4.75;;;3.90;;
20203;SDS011;10261;49.010;12.034;2023-08-30T03:33:58;6.30;;;4.40;;
20203;SDS011;10261;49.010;12.034;2023-08-30T03:35:01;5.15;;;4.03;;
20203;SDS011;10261;49.010;12.034;2023-08-30T03:36:04;7.30;;;4.30;;
20203;SDS011;10261;49.010;12.034;2023-08-30T03:37:07;4.65;;;4.25;;
20203;SDS011;10261;49.010;12.034;2023-08-30T03:38:09;4.53;;;4.05;;
20203;SDS011;10261;49.010;12.034;2023-08-30T03:39:12;4.00;;;3.47;;
20203;SDS011;10261;49.010;12.034;2023-08-30T03:40:14;5.90;;;4.25;;
20203;SDS011;10261;49.010;12.034;2023-08-30T03:41:17;4.38;;;3.97;;
20203;SDS011;10261;49.010;12.034;2023-08-30T03:42:19;4.13;;;3.72;;
20203;SDS011;10261;49.010;12.034;2023-08-30T03:43:22;11.38;;;4.60;;
20203;SDS011;10261;49.010;12.034;2023-08-30T03:44:24;5.70;;;4.28;;
20203;SDS011;10261;49.010;12.034;2023-08-30T03:45:27;4.65;;;4.20;;
20203;SDS011;10261;49.010;12.034;2023-08-30T03:46:29;4.80;;;4.40;;
20203;SDS011;10261;49.010;12.034;2023-08-30T03:47:32;4.35;;;3.75;;
20203;SDS011;10261;49.010;12.034;2023-08-30T03:48:35;8.85;;;4.80;;
20203;SDS011;10261;49.010;12.034;2023-08-30T03:49:38;11.02;;;4.35;;
20203;SDS011;10261;49.010;12.034;2023-08-30T03:50:40;7.28;;;4.90;;
20203;SDS011;10261;49.010;12.034;2023-08-30T03:51:43;5.40;;;4.40;;
20203;SDS011;10261;49.010;12.034;2023-08-30T03:52:45;4.90;;;4.40;;
20203;SDS011;10261;49.010;12.034;2023-08-30T03:53:48;4.90;;;4.35;;
20203;SDS011;10261;49.010;12.034;2023-08-30T03:54:49;5.20;;;4.70;;
20203;SDS011;10261;49.010;12.034;2023-08-30T03:55:52;4.65;;;4.25;;
20203;SDS011;10261;49.010;12.034;2023-08-30T03:56:54;4.82;;;4.43;;
20203;SDS011;10261;49.010;12.034;2023-08-30T03:57:57;5.15;;;4.65;;
20203;SDS011;10261;49.010;12.034;2023-08-30T03:58:59;4.53;;;4.10;;
20203;SDS011;10261;49.010;12.034;2023-08-30T04:00:02;4.90;;;4.50;;
20203;SDS011;10261;49.010;12.034;2023-08-30T04:01:05;6.40;;;4.88;;
20203;SDS011;10261;49.010;12.034;2023-08-30T04:02:09;6.05;;;4.32;;
20203;SDS011;10261;49.010;12.034;2023-08-30T04:03:12;4.90;;;3.92;;
20203;SDS011;10261;49.010;12.034;2023-08-30T04:04:17;8.63;;;4.72;;
20203;SDS011;10261;49.010;12.034;2023-08-30T04:05:19;4.97;;;4.47;;
20203;SDS011;10261;49.010;12.034;2023-08-30T04:06:21;5.63;;;4.45;;
20203;SDS011;10261;49.010;12.034;2023-08-30T04:07:24;7.30;;;5.32;;
20203;SDS011;10261;49.010;12.034;2023-08-30T04:08:26;8.82;;;4.75;;
20203;SDS011;10261;49.010;12.034;2023-08-30T04:09:29;5.00;;;4.38;;
20203;SDS011;10261;49.010;12.034;2023-08-30T04:10:34;4.93;;;4.43;;
20203;SDS011;10261;49.010;12.034;2023-08-30T04:11:37;4.82;;;4.18;;
20203;SDS011;10261;49.010;12.034;2023-08-30T04:12:39;4.45;;;3.78;;
20203;SDS011;10261;49.010;12.034;2023-08-30T04:13:42;4.72;;;4.32;;
20203;SDS011;10261;49.010;12.034;2023-08-30T04:14:44;6.03;;;4.05;;
20203;SDS011;10261;49.010;12.034;2023-08-30T04:15:47;8.38;;;4.88;;
20203;SDS011;10261;49.010;12.034;2023-08-30T04:16:49;8.75;;;4.60;;
20203;SDS011;10261;49.010;12.034;2023-08-30T04:17:52;4.50;;;4.10;;
20203;SDS011;10261;49.010;12.034;2023-08-30T04:18:54;5.15;;;4.57;;
20203;SDS011;10261;49.010;12.034;2023-08-30T04:19:58;6.78;;;5.00;;
20203;SDS011;10261;49.010;12.034;2023-08-30T04:21:01;5.30;;;4.57;;
20203;SDS011;10261;49.010;12.034;2023-08-30T04:22:04;4.90;;;4.10;;
20203;SDS011;10261;49.010;12.034;2023-08-30T04:23:06;4.68;;;4.28;;
20203;SDS011;10261;49.010;12.034;2023-08-30T04:24:09;5.70;;;4.82;;
20203;SDS011;10261;49.010;12.034;2023-08-30T04:25:11;4.75;;;4.22;;
20203;SDS011;10261;49.010;12.034;2023-08-30T04:26:14;5.50;;;5.00;;
20203;SDS011;10261;49.010;12.034;2023-08-30T04:27:16;4.80;;;4.28;;
20203;SDS011;10261;49.010;12.034;2023-08-30T04:28:19;4.80;;;4.30;;
20203;SDS011;10261;49.010;12.034;2023-08-30T04:29:21;4.35;;;4.05;;
20203;SDS011;10261;49.010;12.034;2023-08-30T04:30:24;5.38;;;4.88;;
20203;SDS011;10261;49.010;12.034;2023-08-30T04:31:26;5.45;;;4.10;;
20203;SDS011;10261;49.010;12.034;2023-08-30T04:32:29;4.88;;;4.40;;
20203;SDS011;10261;49.010;12.034;2023-08-30T04:33:31;5.82;;;5.30;;
20203;SDS011;10261;49.010;12.034;2023-08-30T04:34:34;4.93;;;4.43;;
20203;SDS011;10261;49.010;12.034;2023-08-30T04:35:37;5.15;;;4.60;;
20203;SDS011;10261;49.010;12.034;2023-08-30T04:36:40;4.70;;;4.25;;
20203;SDS011;10261;49.010;12.034;2023-08-30T04:37:43;6.35;;;4.88;;
20203;SDS011;10261;49.010;12.034;2023-08-30T04:38:46;5.70;;;4.93;;
20203;SDS011;10261;49.010;12.034;2023-08-30T04:40:03;5.90;;;5.15;;
20203;SDS011;10261;49.010;12.034;2023-08-30T04:41:06;6.30;;;5.60;;
20203;SDS011;10261;49.010;12.034;2023-08-30T04:42:08;6.43;;;5.82;;
20203;SDS011;10261;49.010;12.034;2023-08-30T04:43:11;8.00;;;6.00;;
20203;SDS011;10261;49.010;12.034;2023-08-30T04:44:13;7.18;;;6.45;;
20203;SDS011;10261;49.010;12.034;2023-08-30T04:45:17;7.82;;;6.00;;
20203;SDS011;10261;49.010;12.034;2023-08-30T04:46:19;11.40;;;5.65;;
20203;SDS011;10261;49.010;12.034;2023-08-30T04:47:22;6.40;;;5.40;;
20203;SDS011;10261;49.010;12.034;2023-08-30T04:48:25;6.68;;;5.25;;
20203;SDS011;10261;49.010;12.034;2023-08-30T04:49:27;6.60;;;5.82;;
20203;SDS011;10261;49.010;12.034;2023-08-30T04:50:30;6.22;;;5.22;;
20203;SDS011;10261;49.010;12.034;2023-08-30T04:51:34;7.55;;;5.60;;
20203;SDS011;10261;49.010;12.034;2023-08-30T04:52:37;5.90;;;5.40;;
20203;SDS011;10261;49.010;12.034;2023-08-30T04:53:39;5.93;;;5.25;;
20203;SDS011;10261;49.010;12.034;2023-08-30T04:54:44;6.05;;;5.45;;
20203;SDS011;10261;49.010;12.034;2023-08-30T04:55:46;5.40;;;4.90;;
20203;SDS011;10261;49.010;12.034;2023-08-30T04:56:49;9.23;;;5.80;;
20203;SDS011;10261;49.010;12.034;2023-08-30T04:57:52;6.82;;;5.57;;
20203;SDS011;10261;49.010;12.034;2023-08-30T04:58:55;7.18;;;5.28;;
20203;SDS011;10261;49.010;12.034;2023-08-30T04:59:59;8.45;;;6.00;;
20203;SDS011;10261;49.010;12.034;2023-08-30T05:01:05;6.03;;;5.32;;
20203;SDS011;10261;49.010;12.034;2023-08-30T05:02:08;5.88;;;5.38;;
20203;SDS011;10261;49.010;12.034;2023-08-30T05:03:11;6.32;;;5.72;;
20203;SDS011;10261;49.010;12.034;2023-08-30T05:04:13;7.20;;;6.43;;
20203;SDS011;10261;49.010;12.034;2023-08-30T05:05:15;6.60;;;5.80;;
20203;SDS011;10261;49.010;12.034;2023-08-30T05:06:17;7.28;;;5.68;;
20203;SDS011;10261;49.010;12.034;2023-08-30T05:07:22;8.75;;;6.40;;
20203;SDS011;10261;49.010;12.034;2023-08-30T05:08:24;6.47;;;5.78;;
20203;SDS011;10261;49.010;12.034;2023-08-30T05:09:27;6.85;;;6.25;;
20203;SDS011;10261;49.010;12.034;2023-08-30T05:10:29;7.85;;;5.65;;
20203;SDS011;10261;49.010;12.034;2023-08-30T05:11:31;6.18;;;5.57;;
20203;SDS011;10261;49.010;12.034;2023-08-30T05:12:34;6.88;;;6.25;;
20203;SDS011;10261;49.010;12.034;2023-08-30T05:13:37;8.30;;;5.95;;
20203;SDS011;10261;49.010;12.034;2023-08-30T05:14:39;7.22;;;6.45;;
20203;SDS011;10261;49.010;12.034;2023-08-30T05:15:42;6.13;;;5.55;;
20203;SDS011;10261;49.010;12.034;2023-08-30T05:16:44;10.20;;;6.88;;
20203;SDS011;10261;49.010;12.034;2023-08-30T05:17:47;8.52;;;6.28;;
20203;SDS011;10261;49.010;12.034;2023-08-30T05:18:49;5.40;;;4.90;;
20203;SDS011;10261;49.010;12.034;2023-08-30T05:19:52;9.27;;;6.47;;
20203;SDS011;10261;49.010;12.034;2023-08-30T05:20:54;7.55;;;6.40;;
20203;SDS011;10261;49.010;12.034;2023-08-30T05:21:57;6.22;;;5.15;;
20203;SDS011;10261;49.010;12.034;2023-08-30T05:23:00;7.40;;;6.70;;
20203;SDS011;10261;49.010;12.034;2023-08-30T05:24:04;7.13;;;5.65;;
20203;SDS011;10261;49.010;12.034;2023-08-30T05:25:07;10.27;;;6.30;;
20203;SDS011;10261;49.010;12.034;2023-08-30T05:26:10;6.85;;;5.60;;
20203;SDS011;10261;49.010;12.034;2023-08-30T05:27:13;7.53;;;6.65;;
20203;SDS011;10261;49.010;12.034;2023-08-30T05:28:18;9.07;;;6.40;;
20203;SDS011;10261;49.010;12.034;2023-08-30T05:29:20;7.80;;;6.00;;
20203;SDS011;10261;49.010;12.034;2023-08-30T05:30:23;7.20;;;6.50;;
20203;SDS011;10261;49.010;12.034;2023-08-30T05:31:25;8.15;;;6.22;;
20203;SDS011;10261;49.010;12.034;2023-08-30T05:32:27;5.95;;;5.45;;
20203;SDS011;10261;49.010;12.034;2023-08-30T05:33:29;6.82;;;6.13;;
20203;SDS011;10261;49.010;12.034;2023-08-30T05:34:33;10.13;;;5.70;;
20203;SDS011;10261;49.010;12.034;2023-08-30T05:35:35;7.28;;;6.50;;
20203;SDS011;10261;49.010;12.034;2023-08-30T05:36:38;6.47;;;5.63;;
20203;SDS011;10261;49.010;12.034;2023-08-30T05:37:40;8.23;;;5.90;;
20203;SDS011;10261;49.010;12.034;2023-08-30T05:38:44;6.65;;;5.95;;
20203;SDS011;10261;49.010;12.034;2023-08-30T05:39:46;7.53;;;5.55;;
20203;SDS011;10261;49.010;12.034;2023-08-30T05:40:48;7.78;;;6.55;;
20203;SDS011;10261;49.010;12.034;2023-08-30T05:41:51;9.10;;;6.43;;
20203;SDS011;10261;49.010;12.034;2023-08-30T05:42:53;5.18;;;4.78;;
20203;SDS011;10261;49.010;12.034;2023-08-30T05:43:56;6.80;;;6.10;;
20203;SDS011;10261;49.010;12.034;2023-08-30T05:44:58;5.70;;;5.13;;
20203;SDS011;10261;49.010;12.034;2023-08-30T05:46:01;7.07;;;6.38;;
20203;SDS011;10261;49.010;12.034;2023-08-30T05:47:04;7.82;;;5.65;;
20203;SDS011;10261;49.010;12.034;2023-08-30T05:48:07;6.95;;;5.50;;
20203;SDS011;10261;49.010;12.034;2023-08-30T05:49:09;5.85;;;5.35;;
20203;SDS011;10261;49.010;12.034;2023-08-30T05:50:13;6.13;;;5.50;;
20203;SDS011;10261;49.010;12.034;2023-08-30T05:51:14;6.60;;;6.00;;
20203;SDS011;10261;49.010;12.034;2023-08-30T05:52:17;7.20;;;6.13;;
20203;SDS011;10261;49.010;12.034;2023-08-30T05:53:19;6.63;;;5.78;;
20203;SDS011;10261;49.010;12.034;2023-08-30T05:54:23;10.38;;;5.65;;
20203;SDS011;10261;49.010;12.034;2023-08-30T05:55:28;10.90;;;5.40;;
20203;SDS011;10261;49.010;12.034;2023-08-30T05:56:31;6.95;;;5.80;;
20203;SDS011;10261;49.010;12.034;2023-08-30T05:57:32;6.50;;;5.30;;
20203;SDS011;10261;49.010;12.034;2023-08-30T05:58:35;5.97;;;5.47;;
20203;SDS011;10261;49.010;12.034;2023-08-30T05:59:39;5.75;;;5.13;;
20203;SDS011;10261;49.010;12.034;2023-08-30T06:00:42;6.35;;;5.70;;
20203;SDS011;10261;49.010;12.034;2023-08-30T06:01:43;6.22;;;5.55;;
20203;SDS011;10261;49.010;12.034;2023-08-30T06:02:47;7.30;;;6.35;;
20203;SDS011;10261;49.010;12.034;2023-08-30T06:03:49;6.47;;;4.90;;
20203;SDS011;10261;49.010;12.034;2023-08-30T06:04:51;5.25;;;4.75;;
20203;SDS011;10261;49.010;12.034;2023-08-30T06:05:53;5.88;;;5.20;;
20203;SDS011;10261;49.010;12.034;2023-08-30T06:06:59;5.13;;;4.65;;
20203;SDS011;10261;49.010;12.034;2023-08-30T06:08:01;6.72;;;5.82;;
20203;SDS011;10261;49.010;12.034;2023-08-30T06:09:04;8.93;;;5.65;;
20203;SDS011;10261;49.010;12.034;2023-08-30T06:10:09;7.25;;;6.22;;
20203;SDS011;10261;49.010;12.034;2023-08-30T06:11:11;5.40;;;4.90;;
20203;SDS011;10261;49.010;12.034;2023-08-30T06:12:14;9.57;;;6.25;;
20203;SDS011;10261;49.010;12.034;2023-08-30T06:13:17;6.32;;;5.72;;
20203;SDS011;10261;49.010;12.034;2023-08-30T06:14:19;6.75;;;5.78;;